Time;durP1;ratioP1;P1;durP2;ratioP2;P2;SDS_P1;SDS_P2;PMS_P1;PMS_P2;Temp;Humidity;BMP_temperature;BMP_pressure;BME280_temperature;BME280_humidity;BME280_pressure;Samples;Min_cycle;Max_cycle;Signal;HPM_P1;HPM_P2
2022/06/23 00:00:28;;;;;;;;;;;21.00;62.20;;;;;;5075555;28;780;-74
2022/06/23 00:02:54;;;;;;;;;;;21.00;62.20;;;;;;5074244;28;883;-74
2022/06/23 00:05:21;;;;;;;;;;;21.00;62.20;;;;;;5077970;28;1178;-74
2022/06/23 00:07:53;;;;;;;;;;;21.00;62.20;;;;;;5057535;28;1491;-74
2022/06/23 00:10:33;;;;;;;;;;;21.00;62.20;;;;;;5090938;28;1214;-74
2022/06/23 00:12:59;;;;;;;;;;;21.00;62.30;;;;;;5057706;28;883;-74
2022/06/23 00:15:28;;;;;;;;;;;21.00;62.30;;;;;;5075228;28;994;-74
2022/06/23 00:18:01;;;;;;;;;;;21.00;62.40;;;;;;5075432;28;1902;-74
2022/06/23 00:20:47;;;;;;;;;;;21.00;62.40;;;;;;5057601;28;1166;-74
2022/06/23 00:23:23;;;;;;;;;;;21.00;62.40;;;;;;5057635;28;838;-74
2022/06/23 00:25:59;;;;;;;;;;;21.00;62.40;;;;;;5059995;28;1188;-74
2022/06/23 00:28:26;;;;;;;;;;;21.00;62.40;;;;;;5072631;28;1185;-74
2022/06/23 00:30:58;;;;;;;;;;;21.00;62.50;;;;;;5073900;28;886;-75
2022/06/23 00:33:25;;;;;;;;;;;21.00;62.50;;;;;;5074109;28;874;-74
2022/06/23 00:35:51;;;;;;;;;;;21.00;62.50;;;;;;5057300;28;1195;-74
2022/06/23 00:38:18;;;;;;;;;;;21.00;62.50;;;;;;5085702;28;1932;-74
2022/06/23 00:40:43;;;;;;;;;;;21.00;62.50;;;;;;5068510;28;1246;-75
2022/06/23 00:43:09;;;;;;;;;;;21.00;62.50;;;;;;5059493;28;1316;-74
2022/06/23 00:45:34;;;;;;;;;;;21.00;62.60;;;;;;5057258;28;811;-74
2022/06/23 00:48:03;;;;;;;;;;;21.00;62.60;;;;;;5075920;28;1222;-74
2022/06/23 00:50:35;;;;;;;;;;;21.00;62.60;;;;;;5074893;28;1224;-74
2022/06/23 00:53:08;;;;;;;;;;;21.00;62.60;;;;;;5056774;28;925;-74
2022/06/23 00:55:42;;;;;;;;;;;21.00;62.60;;;;;;5074761;28;830;-74
2022/06/23 00:58:16;;;;;;;;;;;21.00;62.70;;;;;;5074345;28;1969;-74
2022/06/23 01:00:42;;;;;;;;;;;21.00;62.70;;;;;;5056461;28;882;-74
2022/06/23 01:03:07;;;;;;;;;;;21.00;62.70;;;;;;5056255;28;870;-74
2022/06/23 01:05:37;;;;;;;;;;;21.00;62.80;;;;;;5088796;28;1178;-74
2022/06/23 01:08:12;;;;;;;;;;;21.00;62.80;;;;;;5076350;28;1291;-74
2022/06/23 01:10:40;;;;;;;;;;;21.00;62.80;;;;;;5094208;28;953;-74
2022/06/23 01:13:24;;;;;;;;;;;21.00;62.80;;;;;;5094428;28;922;-74
2022/06/23 01:15:54;;;;;;;;;;;21.00;62.80;;;;;;5091181;28;1211;-73
2022/06/23 01:18:22;;;;;;;;;;;21.00;62.80;;;;;;5067777;28;1890;-74
2022/06/23 01:20:50;;;;;;;;;;;21.00;62.80;;;;;;5081720;28;1231;-73
2022/06/23 01:23:21;;;;;;;;;;;21.00;62.80;;;;;;5066998;28;1294;-73
2022/06/23 01:25:54;;;;;;;;;;;21.00;62.90;;;;;;5084202;28;1171;-73
2022/06/23 01:28:20;;;;;;;;;;;21.00;62.90;;;;;;5066948;28;1231;-73
2022/06/23 01:30:55;;;;;;;;;;;21.00;62.90;;;;;;5066773;28;1930;-73
2022/06/23 01:33:20;;;;;;;;;;;21.00;62.90;;;;;;5085913;28;1286;-72
2022/06/23 01:36:06;;;;;;;;;;;21.00;63.00;;;;;;5094436;28;1037;-72
2022/06/23 01:38:37;;;;;;;;;;;21.00;63.00;;;;;;5052441;28;1889;-72
2022/06/23 01:41:11;;;;;;;;;;;21.00;63.00;;;;;;5093426;28;835;-72
2022/06/23 01:43:36;;;;;;;;;;;21.00;63.00;;;;;;5076194;28;910;-72
2022/06/23 01:46:16;;;;;;;;;;;21.00;63.00;;;;;;5093888;28;1252;-72
2022/06/23 01:48:52;;;;;;;;;;;21.00;63.00;;;;;;5069791;28;1173;-72
2022/06/23 01:51:24;;;;;;;;;;;21.00;63.10;;;;;;5076450;28;985;-72
2022/06/23 01:53:51;;;;;;;;;;;21.00;63.10;;;;;;5075992;28;870;-72
2022/06/23 01:56:36;;;;;;;;;;;21.00;63.10;;;;;;5094043;28;1718;-72
2022/06/23 01:59:15;;;;;;;;;;;21.00;63.10;;;;;;5075810;28;1906;-72
2022/06/23 02:02:03;;;;;;;;;;;21.00;63.20;;;;;;5075344;28;871;-72
2022/06/23 02:05:07;;;;;;;;;;;21.00;63.10;;;;;;5070694;28;1150;-72
2022/06/23 02:07:38;;;;;;;;;;;21.00;63.20;;;;;;4991910;28;1327;-72
2022/06/23 02:10:22;;;;;;;;;;;21.00;63.20;;;;;;4991843;28;892;-72
2022/06/23 02:12:48;;;;;;;;;;;21.00;63.20;;;;;;5042391;28;1086;-71
2022/06/23 02:15:17;;;;;;;;;;;21.00;63.30;;;;;;5062002;28;1152;-72
2022/06/23 02:17:47;;;;;;;;;;;21.00;63.30;;;;;;5084996;28;1901;-72
2022/06/23 02:20:45;;;;;;;;;;;21.00;63.30;;;;;;5057341;28;1090;-72
2022/06/23 02:23:31;;;;;;;;;;;21.00;63.30;;;;;;5012015;28;1222;-73
2022/06/23 02:26:20;;;;;;;;;;;21.00;63.30;;;;;;5072348;28;1276;-73
2022/06/23 02:28:49;;;;;;;;;;;21.00;63.30;;;;;;5067230;28;1072;-73
2022/06/23 02:31:19;;;;;;;;;;;21.00;63.40;;;;;;5072899;28;1001;-73
2022/06/23 02:33:58;;;;;;;;;;;21.00;63.40;;;;;;5071933;28;822;-74
2022/06/23 02:36:36;;;;;;;;;;;21.00;63.40;;;;;;5073173;28;1214;-73
2022/06/23 02:39:06;;;;;;;;;;;21.00;63.40;;;;;;5071784;28;1949;-74
2022/06/23 02:41:47;;;;;;;;;;;21.00;63.40;;;;;;5054923;28;1496;-72
2022/06/23 02:44:19;;;;;;;;;;;21.00;63.50;;;;;;5072070;28;933;-72
2022/06/23 02:46:47;;;;;;;;;;;21.00;63.50;;;;;;5073194;28;1316;-73
2022/06/23 02:49:25;;;;;;;;;;;21.00;63.50;;;;;;5073110;28;799;-71
2022/06/23 02:52:00;;;;;;;;;;;21.00;63.50;;;;;;5070669;28;819;-71
2022/06/23 02:54:25;;;;;;;;;;;21.00;63.50;;;;;;5073020;28;1025;-71
2022/06/23 02:56:51;;;;;;;;;;;21.00;63.50;;;;;;5072844;28;1215;-70
2022/06/23 02:59:19;;;;;;;;;;;21.00;63.50;;;;;;5072937;28;1910;-71
2022/06/23 03:01:52;;;;;;;;;;;21.00;63.60;;;;;;5071400;28;807;-71
2022/06/23 03:04:32;;;;;;;;;;;21.00;63.60;;;;;;5074862;28;1029;-73
2022/06/23 03:07:16;;;;;;;;;;;21.00;63.50;;;;;;5074886;28;1256;-73
2022/06/23 03:09:42;;;;;;;;;;;21.00;63.60;;;;;;5092902;28;973;-71
2022/06/23 03:12:18;;;;;;;;;;;21.00;63.60;;;;;;5074740;28;846;-73
2022/06/23 03:14:48;;;;;;;;;;;21.00;63.60;;;;;;5074898;28;894;-73
2022/06/23 03:17:16;;;;;;;;;;;21.00;63.60;;;;;;5074938;28;1215;-73
2022/06/23 03:19:43;;;;;;;;;;;21.00;63.70;;;;;;5078926;28;1969;-73
2022/06/23 03:22:08;;;;;;;;;;;21.00;63.60;;;;;;5072549;28;871;-73
2022/06/23 03:24:41;;;;;;;;;;;21.00;63.70;;;;;;5072638;28;783;-73
2022/06/23 03:27:16;;;;;;;;;;;21.00;63.70;;;;;;5054451;28;1315;-73
2022/06/23 03:29:47;;;;;;;;;;;21.00;63.70;;;;;;5072496;28;1017;-73
2022/06/23 03:32:14;;;;;;;;;;;21.00;63.70;;;;;;5054483;28;1037;-73
2022/06/23 03:35:03;;;;;;;;;;;21.00;63.80;;;;;;5054653;28;1424;-76
2022/06/23 03:37:47;;;;;;;;;;;21.00;63.80;;;;;;5046435;28;1239;-75
2022/06/23 03:42:58;;;;;;;;;;;21.00;63.80;;;;;;5072431;28;670;-72
2022/06/23 03:45:31;;;;;;;;;;;21.00;63.80;;;;;;5072509;28;788;-72
2022/06/23 03:48:00;;;;;;;;;;;21.00;63.80;;;;;;5068247;28;2176;-73
2022/06/23 03:50:27;;;;;;;;;;;21.00;63.90;;;;;;5083873;28;1030;-71
2022/06/23 03:52:54;;;;;;;;;;;21.00;63.80;;;;;;5058883;28;1070;-72
2022/06/23 03:55:28;;;;;;;;;;;21.00;63.90;;;;;;5073328;28;1182;-77
2022/06/23 03:58:17;;;;;;;;;;;21.00;63.90;;;;;;5057690;28;1906;-71
2022/06/23 04:00:53;;;;;;;;;;;21.00;63.90;;;;;;5074579;28;1216;-73
2022/06/23 04:03:18;;;;;;;;;;;21.00;63.90;;;;;;5085131;28;1208;-68
2022/06/23 04:05:55;;;;;;;;;;;21.00;63.90;;;;;;5080025;28;1027;-69
2022/06/23 04:08:24;;;;;;;;;;;21.00;63.90;;;;;;5075825;28;879;-69
2022/06/23 04:10:50;;;;;;;;;;;21.00;63.90;;;;;;5057432;28;812;-73
2022/06/23 04:13:20;;;;;;;;;;;21.00;63.90;;;;;;5075631;28;1013;-69
2022/06/23 04:15:48;;;;;;;;;;;20.90;63.90;;;;;;5088033;28;1003;-68
2022/06/23 04:18:16;;;;;;;;;;;21.00;63.90;;;;;;5074646;28;1890;-67
2022/06/23 04:20:53;;;;;;;;;;;21.00;64.00;;;;;;5057482;28;1044;-72
2022/06/23 04:23:35;;;;;;;;;;;21.00;63.90;;;;;;5064999;28;1476;-70
2022/06/23 04:26:20;;;;;;;;;;;21.00;64.00;;;;;;5077475;28;1244;-70
2022/06/23 04:28:47;;;;;;;;;;;21.00;64.10;;;;;;5071531;28;1270;-69
2022/06/23 04:31:17;;;;;;;;;;;21.00;64.00;;;;;;5057157;28;844;-70
2022/06/23 04:33:43;;;;;;;;;;;21.00;64.00;;;;;;5057200;28;859;-71
2022/06/23 04:36:44;;;;;;;;;;;21.00;64.10;;;;;;5057389;28;1216;-71
2022/06/23 04:39:22;;;;;;;;;;;20.90;63.90;;;;;;4993438;28;1899;-70
2022/06/23 04:41:49;;;;;;;;;;;21.00;64.10;;;;;;5066138;28;1674;-70
2022/06/23 04:44:35;;;;;;;;;;;21.00;64.10;;;;;;5074014;28;1128;-69
2022/06/23 04:47:01;;;;;;;;;;;21.00;64.10;;;;;;5094307;28;1207;-69
2022/06/23 04:49:29;;;;;;;;;;;21.00;64.10;;;;;;5077037;28;1282;-72
2022/06/23 04:52:03;;;;;;;;;;;21.00;64.10;;;;;;5095011;28;879;-72
2022/06/23 04:54:36;;;;;;;;;;;21.00;64.10;;;;;;5076615;28;1160;-71
2022/06/23 04:57:12;;;;;;;;;;;21.00;64.10;;;;;;5076734;28;1209;-70
2022/06/23 04:59:42;;;;;;;;;;;21.00;64.20;;;;;;5074772;28;1906;-74
2022/06/23 05:02:29;;;;;;;;;;;21.00;64.10;;;;;;5056640;28;855;-73
2022/06/23 05:05:03;;;;;;;;;;;21.00;64.20;;;;;;5065275;28;1131;-70
2022/06/23 05:07:31;;;;;;;;;;;21.00;64.20;;;;;;5094752;28;1207;-71
2022/06/23 05:09:59;;;;;;;;;;;21.00;64.20;;;;;;5068856;28;1095;-71
2022/06/23 05:12:29;;;;;;;;;;;21.00;64.20;;;;;;5076289;28;1231;-72
2022/06/23 05:15:01;;;;;;;;;;;21.00;64.20;;;;;;5093809;28;1048;-66
2022/06/23 05:17:28;;;;;;;;;;;21.00;64.20;;;;;;5076274;28;1207;-70
2022/06/23 05:19:54;;;;;;;;;;;21.00;64.20;;;;;;5060934;28;1961;-70
2022/06/23 05:22:22;;;;;;;;;;;21.00;64.20;;;;;;5074396;28;993;-70
2022/06/23 05:24:48;;;;;;;;;;;21.00;64.30;;;;;;5074309;28;791;-70
2022/06/23 05:27:16;;;;;;;;;;;21.00;64.30;;;;;;5056163;28;1375;-70
2022/06/23 05:29:43;;;;;;;;;;;21.00;64.30;;;;;;5056207;28;895;-69
2022/06/23 05:32:20;;;;;;;;;;;21.00;64.30;;;;;;5056030;28;1038;-71
2022/06/23 05:35:05;;;;;;;;;;;21.00;64.30;;;;;;5056177;28;816;-70
2022/06/23 05:37:37;;;;;;;;;;;21.00;64.30;;;;;;5086675;28;1196;-70
2022/06/23 05:40:08;;;;;;;;;;;21.00;64.30;;;;;;5093926;28;1894;-70
2022/06/23 05:42:33;;;;;;;;;;;21.00;64.30;;;;;;5075705;28;1261;-70
2022/06/23 05:45:01;;;;;;;;;;;21.00;64.40;;;;;;5072602;28;1792;-71
2022/06/23 05:47:27;;;;;;;;;;;21.00;64.40;;;;;;5058994;28;1298;-68
2022/06/23 05:49:53;;;;;;;;;;;21.00;64.30;;;;;;5075606;28;1298;-68
2022/06/23 05:52:24;;;;;;;;;;;21.00;64.30;;;;;;5075997;28;867;-68
2022/06/23 05:54:57;;;;;;;;;;;21.00;64.40;;;;;;5075735;28;953;-66
2022/06/23 05:57:28;;;;;;;;;;;21.00;64.40;;;;;;5065008;28;1242;-68
2022/06/23 06:00:19;;;;;;;;;;;21.00;64.70;;;;;;5055259;28;1957;-71
2022/06/23 06:02:47;;;;;;;;;;;21.00;64.40;;;;;;5081569;28;1120;-67
2022/06/23 06:05:24;;;;;;;;;;;20.90;64.40;;;;;;5075959;28;1108;-69
2022/06/23 06:07:50;;;;;;;;;;;21.00;64.40;;;;;;5075712;28;1318;-69
2022/06/23 06:10:16;;;;;;;;;;;21.00;64.50;;;;;;5093477;28;890;-68
2022/06/23 06:12:41;;;;;;;;;;;21.00;64.40;;;;;;5075623;28;796;-69
2022/06/23 06:15:10;;;;;;;;;;;21.00;64.40;;;;;;5093394;28;1017;-68
2022/06/23 06:17:36;;;;;;;;;;;21.00;64.50;;;;;;5093797;28;1282;-71
2022/06/23 06:20:05;;;;;;;;;;;21.00;64.50;;;;;;5076406;28;2000;-70
2022/06/23 06:22:37;;;;;;;;;;;21.00;64.50;;;;;;5055317;28;1100;-71
2022/06/23 06:25:03;;;;;;;;;;;21.00;64.50;;;;;;5073280;28;898;-67
2022/06/23 06:27:28;;;;;;;;;;;21.00;64.50;;;;;;5054983;28;1298;-67
2022/06/23 06:29:53;;;;;;;;;;;21.00;64.50;;;;;;5072766;28;918;-69
2022/06/23 06:32:26;;;;;;;;;;;21.00;64.50;;;;;;5063172;28;2277;-72
2022/06/23 06:34:58;;;;;;;;;;;21.00;64.50;;;;;;5081227;28;1416;-73
2022/06/23 06:37:24;;;;;;;;;;;20.90;64.50;;;;;;5063538;28;1868;-76
2022/06/23 06:39:50;;;;;;;;;;;21.00;64.60;;;;;;5089806;28;1894;-74
2022/06/23 06:42:23;;;;;;;;;;;21.00;64.60;;;;;;5073320;28;1129;-75
2022/06/23 06:44:49;;;;;;;;;;;21.00;64.60;;;;;;5066566;28;1182;-75
2022/06/23 06:47:20;;;;;;;;;;;20.90;64.60;;;;;;5074871;28;1307;-74
2022/06/23 06:49:46;;;;;;;;;;;21.00;64.60;;;;;;5075046;28;922;-74
2022/06/23 06:52:12;;;;;;;;;;;21.00;64.60;;;;;;5074839;28;871;-75
2022/06/23 06:54:42;;;;;;;;;;;21.00;64.60;;;;;;5093506;28;822;-77
2022/06/23 06:57:17;;;;;;;;;;;21.00;64.70;;;;;;5074999;28;1193;-76
2022/06/23 06:59:44;;;;;;;;;;;21.00;64.70;;;;;;5075072;28;1981;-76
2022/06/23 07:02:15;;;;;;;;;;;20.90;64.60;;;;;;5075044;28;1033;-77
2022/06/23 07:04:45;;;;;;;;;;;21.00;64.70;;;;;;5086696;28;1166;-74
2022/06/23 07:07:13;;;;;;;;;;;21.00;64.70;;;;;;5054846;28;1326;-74
2022/06/23 07:09:38;;;;;;;;;;;21.00;64.70;;;;;;5054893;28;1042;-75
2022/06/23 07:12:05;;;;;;;;;;;21.00;64.70;;;;;;5072417;28;990;-75
2022/06/23 07:14:42;;;;;;;;;;;21.00;64.70;;;;;;5054818;28;831;-74
2022/06/23 07:17:28;;;;;;;;;;;21.00;64.70;;;;;;5054689;28;1211;-76
2022/06/23 07:19:55;;;;;;;;;;;21.00;64.70;;;;;;5054518;28;1959;-73
2022/06/23 07:22:24;;;;;;;;;;;21.00;64.80;;;;;;5058188;28;2142;-72
2022/06/23 07:24:52;;;;;;;;;;;21.00;64.80;;;;;;5076767;28;1111;-73
2022/06/23 07:27:25;;;;;;;;;;;21.00;64.40;;;;;;5066552;28;1723;-73
2022/06/23 07:29:51;;;;;;;;;;;21.00;63.70;;;;;;5056552;28;1559;-71
2022/06/23 07:32:19;;;;;;;;;;;21.00;63.30;;;;;;5072379;28;844;-73
2022/06/23 07:34:55;;;;;;;;;;;21.00;63.00;;;;;;5056157;28;1188;-74
2022/06/23 07:37:22;;;;;;;;;;;21.00;63.10;;;;;;5066130;28;1388;-74
2022/06/23 07:39:48;;;;;;;;;;;21.10;63.10;;;;;;5078381;28;2314;-74
2022/06/23 07:42:16;;;;;;;;;;;21.10;62.40;;;;;;5096232;28;1252;-74
2022/06/23 07:44:47;;;;;;;;;;;21.10;61.90;;;;;;5078477;28;796;-71
2022/06/23 07:47:12;;;;;;;;;;;21.10;61.70;;;;;;5078023;28;1223;-70
2022/06/23 07:49:38;;;;;;;;;;;21.10;61.40;;;;;;5078219;28;764;-71
2022/06/23 07:52:03;;;;;;;;;;;21.20;61.30;;;;;;5078069;28;799;-71
2022/06/23 07:54:30;;;;;;;;;;;21.20;61.20;;;;;;5096478;28;756;-71
2022/06/23 07:56:56;;;;;;;;;;;21.20;61.40;;;;;;5096233;28;1204;-70
2022/06/23 07:59:24;;;;;;;;;;;21.20;61.30;;;;;;5072730;28;1951;-67
2022/06/23 08:01:54;;;;;;;;;;;21.20;61.50;;;;;;5077467;28;933;-67
2022/06/23 08:04:25;;;;;;;;;;;21.20;61.50;;;;;;5057222;28;1159;-68
2022/06/23 08:06:51;;;;;;;;;;;21.20;60.80;;;;;;5041055;28;1438;-68
2022/06/23 08:09:16;;;;;;;;;;;21.20;60.60;;;;;;5058044;28;796;-68
2022/06/23 08:14:28;;;;;;;;;;;21.30;60.70;;;;;;5087340;28;1129;-72
2022/06/23 08:16:53;;;;;;;;;;;21.30;60.30;;;;;;5095894;28;1208;-70
2022/06/23 08:19:19;;;;;;;;;;;21.30;60.30;;;;;;5067367;28;1960;-72
2022/06/23 08:21:48;;;;;;;;;;;21.30;59.70;;;;;;5086886;28;1469;-71
2022/06/23 08:24:15;;;;;;;;;;;21.30;59.50;;;;;;5052216;28;1880;-70
2022/06/23 08:26:42;;;;;;;;;;;21.30;60.20;;;;;;5072082;28;1324;-71
2022/06/23 08:29:09;;;;;;;;;;;21.30;60.80;;;;;;5065616;28;1158;-72
2022/06/23 08:31:34;;;;;;;;;;;21.30;61.50;;;;;;5063524;28;2185;-72
2022/06/23 08:34:00;;;;;;;;;;;21.30;61.10;;;;;;5087503;28;1929;-72
2022/06/23 08:36:29;;;;;;;;;;;21.30;60.70;;;;;;5076446;28;1806;-72
2022/06/23 08:39:00;;;;;;;;;;;21.30;60.50;;;;;;5083073;28;1894;-72
2022/06/23 08:41:43;;;;;;;;;;;21.30;60.30;;;;;;5068088;28;1194;-71
2022/06/23 08:44:11;;;;;;;;;;;21.40;60.30;;;;;;5061730;28;1261;-71
2022/06/23 08:46:40;;;;;;;;;;;21.40;60.40;;;;;;5069891;28;1378;-71
2022/06/23 08:49:14;;;;;;;;;;;21.40;60.60;;;;;;5084797;23;3638;-67
2022/06/23 08:51:41;;;;;;;;;;;21.40;60.70;;;;;;5075549;28;1467;-67
2022/06/23 08:54:10;;;;;;;;;;;21.40;60.90;;;;;;5090897;28;1475;-67
2022/06/23 08:56:41;;;;;;;;;;;21.40;60.20;;;;;;5094356;28;1857;-67
2022/06/23 08:59:13;;;;;;;;;;;21.40;60.40;;;;;;5075764;28;1971;-67
2022/06/23 09:01:42;;;;;;;;;;;21.40;60.40;;;;;;5036995;28;926;-67
2022/06/23 09:04:17;;;;;;;;;;;21.40;60.00;;;;;;5039054;28;1511;-67
2022/06/23 09:06:54;;;;;;;;;;;21.40;59.90;;;;;;5056912;28;831;-67
2022/06/23 09:09:37;;;;;;;;;;;21.40;59.50;;;;;;5074354;28;890;-67
2022/06/23 09:12:05;;;;;;;;;;;21.40;59.40;;;;;;5069709;28;2358;-68
2022/06/23 09:14:50;;;;;;;;;;;21.40;59.50;;;;;;5055667;28;1203;-68
2022/06/23 09:17:32;;;;;;;;;;;21.40;59.80;;;;;;5055771;28;1185;-68
2022/06/23 09:19:58;;;;;;;;;;;21.40;59.40;;;;;;5070135;28;1898;-68
2022/06/23 09:22:41;;;;;;;;;;;21.40;59.60;;;;;;5074437;28;934;-68
2022/06/23 09:25:24;;;;;;;;;;;21.50;59.70;;;;;;5074440;28;839;-68
2022/06/23 09:28:11;;;;;;;;;;;21.50;59.90;;;;;;5056347;28;1304;-67
2022/06/23 09:30:38;;;;;;;;;;;21.50;60.00;;;;;;5073905;28;1137;-67
2022/06/23 09:33:15;;;;;;;;;;;21.50;60.10;;;;;;5056509;28;855;-68
2022/06/23 09:35:47;;;;;;;;;;;21.50;59.70;;;;;;5073895;28;1196;-69
2022/06/23 09:38:31;;;;;;;;;;;21.50;58.90;;;;;;5074039;28;1906;-70
2022/06/23 09:41:14;;;;;;;;;;;21.50;58.50;;;;;;5073712;28;842;-68
2022/06/23 09:43:52;;;;;;;;;;;21.50;58.60;;;;;;5073941;28;839;-69
2022/06/23 09:46:23;;;;;;;;;;;21.50;57.90;;;;;;5073810;28;986;-69
2022/06/23 09:49:02;;;;;;;;;;;21.50;58.00;;;;;;5073767;28;1232;-71
2022/06/23 09:51:46;;;;;;;;;;;21.50;58.20;;;;;;5055950;28;905;-69
2022/06/23 09:54:30;;;;;;;;;;;21.50;57.10;;;;;;5073712;28;826;-71
2022/06/23 09:56:59;;;;;;;;;;;21.60;57.50;;;;;;5073806;28;1272;-71
2022/06/23 09:59:33;;;;;;;;;;;21.60;57.70;;;;;;5073589;28;1973;-69
2022/06/23 10:01:58;;;;;;;;;;;21.60;57.60;;;;;;5073117;28;890;-70
2022/06/23 10:04:47;;;;;;;;;;;21.60;56.90;;;;;;5073472;28;1151;-69
2022/06/23 10:07:32;;;;;;;;;;;21.60;56.90;;;;;;5046393;28;1189;-69
2022/06/23 10:10:16;;;;;;;;;;;21.60;57.10;;;;;;5072751;28;1053;-69
2022/06/23 10:12:47;;;;;;;;;;;21.60;56.50;;;;;;5072140;28;854;-69
2022/06/23 10:15:26;;;;;;;;;;;21.60;57.40;;;;;;5073081;28;750;-69
2022/06/23 10:17:54;;;;;;;;;;;21.60;57.40;;;;;;5055239;28;1270;-69
2022/06/23 10:20:46;;;;;;;;;;;21.60;57.00;;;;;;5054809;28;1262;-69
2022/06/23 10:23:30;;;;;;;;;;;21.60;57.00;;;;;;5041968;28;1319;-69
2022/06/23 10:25:56;;;;;;;;;;;21.60;57.20;;;;;;5072987;28;1098;-69
2022/06/23 10:28:36;;;;;;;;;;;21.60;56.90;;;;;;5073132;28;1196;-68
2022/06/23 10:31:20;;;;;;;;;;;21.60;57.00;;;;;;5072784;28;1065;-68
2022/06/23 10:33:46;;;;;;;;;;;21.60;57.00;;;;;;5073283;28;878;-68
2022/06/23 10:36:29;;;;;;;;;;;21.60;56.70;;;;;;5072894;28;887;-68
2022/06/23 10:38:55;;;;;;;;;;;21.60;56.00;;;;;;5072824;28;1890;-69
2022/06/23 10:41:38;;;;;;;;;;;21.60;56.00;;;;;;5072744;28;961;-68
2022/06/23 10:44:22;;;;;;;;;;;21.60;55.90;;;;;;5072874;28;861;-69
2022/06/23 10:46:51;;;;;;;;;;;21.60;55.60;;;;;;5072813;28;867;-68
2022/06/23 10:49:35;;;;;;;;;;;21.60;53.90;;;;;;5055226;28;1217;-68
2022/06/23 10:52:01;;;;;;;;;;;21.70;54.40;;;;;;5072549;28;906;-68
2022/06/23 10:54:45;;;;;;;;;;;21.60;54.90;;;;;;5072851;28;854;-68
2022/06/23 10:57:29;;;;;;;;;;;21.70;54.90;;;;;;5072491;28;1413;-68
2022/06/23 11:00:05;;;;;;;;;;;21.70;55.00;;;;;;5072537;28;1938;-68
2022/06/23 11:02:39;;;;;;;;;;;21.70;54.70;;;;;;5055051;28;878;-68
2022/06/23 11:05:15;;;;;;;;;;;21.70;54.80;;;;;;5054709;28;1502;-68
2022/06/23 11:07:40;;;;;;;;;;;21.70;55.60;;;;;;5054603;28;1376;-68
2022/06/23 11:10:29;;;;;;;;;;;21.80;56.90;;;;;;5070639;28;2186;-67
2022/06/23 11:13:13;;;;;;;;;;;21.80;57.00;;;;;;5050777;28;1748;-68
2022/06/23 11:15:57;;;;;;;;;;;21.80;56.70;;;;;;5076059;28;1086;-68
2022/06/23 11:18:22;;;;;;;;;;;21.90;55.70;;;;;;5067853;28;1914;-69
2022/06/23 11:21:00;;;;;;;;;;;22.00;56.30;;;;;;5076074;28;852;-68
2022/06/23 11:23:25;;;;;;;;;;;22.00;56.40;;;;;;5058194;28;1353;-69
2022/06/23 11:25:53;;;;;;;;;;;22.10;56.10;;;;;;5076398;28;1026;-69
2022/06/23 11:28:29;;;;;;;;;;;22.10;55.90;;;;;;5038240;28;1192;-68
2022/06/23 11:31:04;;;;;;;;;;;22.20;55.60;;;;;;5071546;28;1009;-69
2022/06/23 11:33:30;;;;;;;;;;;22.20;55.60;;;;;;5071610;28;1061;-68
2022/06/23 11:36:06;;;;;;;;;;;22.20;56.00;;;;;;5056059;28;819;-69
2022/06/23 11:38:37;;;;;;;;;;;22.30;56.20;;;;;;5071259;28;1963;-68
2022/06/23 11:41:26;;;;;;;;;;;22.30;56.40;;;;;;5071324;28;906;-68
2022/06/23 11:44:00;;;;;;;;;;;22.30;55.30;;;;;;5036212;28;1129;-68
2022/06/23 11:46:42;;;;;;;;;;;22.30;55.30;;;;;;5056114;28;1001;-68
2022/06/23 11:49:11;;;;;;;;;;;22.30;54.60;;;;;;5054150;28;1450;-68
2022/06/23 11:51:46;;;;;;;;;;;22.30;54.60;;;;;;5077318;28;2255;-68
2022/06/23 11:54:11;;;;;;;;;;;22.30;55.30;;;;;;5084787;28;2221;-69
2022/06/23 11:56:43;;;;;;;;;;;22.30;55.40;;;;;;5075458;28;1097;-68
2022/06/23 11:59:18;;;;;;;;;;;22.30;55.30;;;;;;5086521;28;1910;-68
2022/06/23 12:01:44;;;;;;;;;;;22.30;55.00;;;;;;5076376;28;839;-69
2022/06/23 12:04:23;;;;;;;;;;;22.30;54.40;;;;;;5091706;28;1079;-68
2022/06/23 12:06:59;;;;;;;;;;;22.30;54.30;;;;;;5075298;28;938;-67
2022/06/23 12:09:24;;;;;;;;;;;22.30;54.30;;;;;;5075441;28;831;-68
2022/06/23 12:11:50;;;;;;;;;;;22.30;54.30;;;;;;5075024;28;887;-68
2022/06/23 12:14:16;;;;;;;;;;;22.30;54.20;;;;;;5074197;28;1828;-68
2022/06/23 12:16:45;;;;;;;;;;;22.30;55.10;;;;;;5080098;28;1958;-68
2022/06/23 12:19:12;;;;;;;;;;;22.30;53.90;;;;;;5082687;28;2185;-68
2022/06/23 12:21:50;;;;;;;;;;;22.30;53.40;;;;;;5081971;28;1922;-69
2022/06/23 12:24:21;;;;;;;;;;;22.30;53.40;;;;;;5085480;28;2164;-67
2022/06/23 12:27:06;;;;;;;;;;;22.30;53.10;;;;;;5068021;28;2271;-68
2022/06/23 12:29:40;;;;;;;;;;;22.30;53.30;;;;;;5074016;28;1255;-68
2022/06/23 12:32:13;;;;;;;;;;;22.30;51.90;;;;;;5056597;28;1153;-68
2022/06/23 12:34:44;;;;;;;;;;;22.30;51.90;;;;;;5054922;28;1196;-68
2022/06/23 12:37:25;;;;;;;;;;;22.30;51.60;;;;;;5074750;28;1310;-68
2022/06/23 12:39:51;;;;;;;;;;;22.30;52.50;;;;;;5056482;28;1898;-68
2022/06/23 12:42:21;;;;;;;;;;;22.30;52.80;;;;;;5074698;28;1187;-68
2022/06/23 12:44:49;;;;;;;;;;;22.30;52.40;;;;;;5074102;28;1870;-68
2022/06/23 12:47:15;;;;;;;;;;;22.30;52.30;;;;;;5073468;28;1263;-67
2022/06/23 12:49:52;;;;;;;;;;;22.30;52.10;;;;;;5074059;28;1004;-67
2022/06/23 12:52:24;;;;;;;;;;;22.30;52.10;;;;;;5074259;28;1223;-67
2022/06/23 12:54:52;;;;;;;;;;;22.30;52.10;;;;;;5074512;28;897;-67
2022/06/23 12:57:28;;;;;;;;;;;22.30;52.50;;;;;;5074708;28;1286;-67
2022/06/23 13:00:11;;;;;;;;;;;22.30;51.90;;;;;;5056319;28;1906;-68
2022/06/23 13:02:36;;;;;;;;;;;22.30;52.50;;;;;;5056770;28;871;-67
2022/06/23 13:05:07;;;;;;;;;;;22.30;51.90;;;;;;5073996;28;985;-67
2022/06/23 13:07:50;;;;;;;;;;;22.30;52.40;;;;;;5074749;28;1189;-68
2022/06/23 13:10:24;;;;;;;;;;;22.30;52.70;;;;;;5056015;28;815;-68
2022/06/23 13:12:50;;;;;;;;;;;22.30;52.80;;;;;;5074472;28;997;-68
2022/06/23 13:15:17;;;;;;;;;;;22.30;52.60;;;;;;5074341;28;910;-68
2022/06/23 13:18:01;;;;;;;;;;;22.30;52.80;;;;;;5056295;28;1217;-68
2022/06/23 13:20:26;;;;;;;;;;;22.30;53.00;;;;;;5073506;28;1178;-68
2022/06/23 13:22:56;;;;;;;;;;;22.30;53.10;;;;;;5055946;28;1222;-68
2022/06/23 13:25:26;;;;;;;;;;;22.30;52.80;;;;;;5074097;28;756;-68
2022/06/23 13:27:52;;;;;;;;;;;22.30;53.20;;;;;;5056029;28;1294;-68
2022/06/23 13:30:19;;;;;;;;;;;22.30;53.40;;;;;;5055807;28;898;-68
2022/06/23 13:32:57;;;;;;;;;;;22.30;53.70;;;;;;5056096;28;1160;-68
2022/06/23 13:35:44;;;;;;;;;;;22.30;53.70;;;;;;5072937;28;966;-68
2022/06/23 13:38:21;;;;;;;;;;;22.30;53.60;;;;;;5055865;28;1963;-68
2022/06/23 13:40:57;;;;;;;;;;;22.30;53.70;;;;;;5038700;28;1205;-68
2022/06/23 13:43:26;;;;;;;;;;;22.30;53.60;;;;;;5055960;28;1020;-68
2022/06/23 13:46:00;;;;;;;;;;;22.30;53.30;;;;;;5073461;28;896;-68
2022/06/23 13:48:28;;;;;;;;;;;22.30;53.30;;;;;;5055323;28;1278;-68
2022/06/23 13:50:57;;;;;;;;;;;22.30;53.30;;;;;;5055616;28;879;-68
2022/06/23 13:53:25;;;;;;;;;;;22.30;53.00;;;;;;5055710;28;941;-68
2022/06/23 13:55:56;;;;;;;;;;;22.30;53.00;;;;;;5073614;28;1033;-68
2022/06/23 13:58:26;;;;;;;;;;;22.30;52.80;;;;;;5055162;28;1909;-68
2022/06/23 14:00:57;;;;;;;;;;;22.30;53.20;;;;;;5055318;28;863;-68
2022/06/23 14:03:41;;;;;;;;;;;22.30;53.10;;;;;;5073244;28;878;-67
2022/06/23 14:06:08;;;;;;;;;;;22.30;53.20;;;;;;5072904;28;1222;-68
2022/06/23 14:08:37;;;;;;;;;;;22.30;53.00;;;;;;5055402;28;1318;-69
2022/06/23 14:11:15;;;;;;;;;;;22.30;53.10;;;;;;5073147;28;1547;-69
2022/06/23 14:13:44;;;;;;;;;;;22.30;52.30;;;;;;5055644;28;823;-66
2022/06/23 14:16:16;;;;;;;;;;;22.30;52.40;;;;;;5055739;28;1040;-64
2022/06/23 14:18:45;;;;;;;;;;;22.30;51.60;;;;;;5054900;28;1886;-68
2022/06/23 14:21:11;;;;;;;;;;;22.30;51.60;;;;;;5054808;28;1561;-67
2022/06/23 14:23:46;;;;;;;;;;;22.30;51.80;;;;;;5073100;28;1223;-66
2022/06/23 14:26:13;;;;;;;;;;;22.30;51.80;;;;;;5071961;28;1160;-68
2022/06/23 14:29:01;;;;;;;;;;;22.30;51.80;;;;;;5054977;28;1344;-68
2022/06/23 14:31:28;;;;;;;;;;;22.30;51.30;;;;;;5046318;28;1272;-67
2022/06/23 14:33:56;;;;;;;;;;;22.30;51.40;;;;;;5054694;28;1248;-68
2022/06/23 14:36:21;;;;;;;;;;;22.30;51.00;;;;;;5055210;28;1256;-68
2022/06/23 14:38:46;;;;;;;;;;;22.30;51.20;;;;;;5054851;28;1961;-68
2022/06/23 14:41:31;;;;;;;;;;;22.30;50.70;;;;;;5072840;28;807;-68
2022/06/23 14:44:02;;;;;;;;;;;22.30;51.00;;;;;;5072794;28;907;-68
2022/06/23 14:46:30;;;;;;;;;;;22.30;51.10;;;;;;5073084;28;1053;-68
2022/06/23 14:49:06;;;;;;;;;;;22.30;51.00;;;;;;5073305;28;1200;-68
2022/06/23 14:51:35;;;;;;;;;;;22.30;51.40;;;;;;5054835;28;859;-67
2022/06/23 14:54:19;;;;;;;;;;;22.30;50.80;;;;;;5055264;28;921;-67
2022/06/23 14:56:48;;;;;;;;;;;22.30;51.30;;;;;;5073052;28;785;-67
2022/06/23 14:59:18;;;;;;;;;;;22.30;51.80;;;;;;5055162;28;1927;-67
2022/06/23 15:02:07;;;;;;;;;;;22.30;51.30;;;;;;5055082;28;870;-68
2022/06/23 15:04:40;;;;;;;;;;;22.30;51.40;;;;;;5046319;28;1427;-67
2022/06/23 15:07:13;;;;;;;;;;;22.30;51.20;;;;;;5054546;28;1227;-68
2022/06/23 15:09:56;;;;;;;;;;;22.30;51.30;;;;;;5055052;28;871;-67